Time;durP1;ratioP1;P1;durP2;ratioP2;P2;SDS_P1;SDS_P2;PMS_P1;PMS_P2;Temp;Humidity;BMP_temperature;BMP_pressure;BME280_temperature;BME280_humidity;BME280_pressure;Samples;Min_cycle;Max_cycle;Signal;HPM_P1;HPM_P2
2022/05/09 00:02:00;;;;;;;11.90;4.85;;;;;;;5.48;96.47;102952.91;5111700;28;20460;-73
2022/05/09 00:04:26;;;;;;;12.75;5.22;;;;;;;5.45;96.65;102953.00;5093220;28;20054;-73
2022/05/09 00:06:51;;;;;;;12.32;5.40;;;;;;;5.44;97.11;102953.91;5111638;28;20040;-73
2022/05/09 00:09:18;;;;;;;11.52;4.70;;;;;;;5.39;97.34;102950.56;5093181;28;20031;-74
2022/05/09 00:11:44;;;;;;;11.85;4.93;;;;;;;5.38;97.55;102951.50;5111606;28;20027;-73
2022/05/09 00:14:11;;;;;;;16.73;4.90;;;;;;;5.37;97.67;102947.13;5111264;28;20035;-73
2022/05/09 00:16:37;;;;;;;7.80;4.80;;;;;;;5.33;97.83;102943.72;5111552;28;20084;-73
2022/05/09 00:19:05;;;;;;;15.30;4.93;;;;;;;5.28;97.98;102941.25;5111206;28;20122;-73
2022/05/09 00:21:36;;;;;;;10.77;4.97;;;;;;;5.25;97.85;102937.84;5111337;28;20023;-73
2022/05/09 00:24:02;;;;;;;13.90;4.22;;;;;;;5.21;97.96;102939.75;5111739;28;20024;-73
2022/05/09 00:26:31;;;;;;;11.45;4.72;;;;;;;5.16;97.92;102940.81;5111475;28;20475;-73
2022/05/09 00:28:57;;;;;;;10.93;4.05;;;;;;;5.13;97.89;102936.47;5111741;28;20032;-73
2022/05/09 00:31:23;;;;;;;10.43;4.30;;;;;;;5.08;97.79;102941.91;5111449;28;20040;-73
2022/05/09 00:33:48;;;;;;;9.05;4.03;;;;;;;5.09;97.69;102943.66;5093199;28;20066;-73
2022/05/09 00:36:16;;;;;;;16.65;4.70;;;;;;;5.05;97.95;102934.09;5092705;28;20114;-72
2022/05/09 00:38:41;;;;;;;19.10;4.05;;;;;;;5.03;97.82;102940.34;5111246;28;20040;-73
2022/05/09 00:43:52;;;;;;;16.38;4.15;;;;;;;4.94;97.85;102942.41;5111492;28;20058;-73
2022/05/09 00:46:17;;;;;;;11.23;3.60;;;;;;;4.91;97.56;102934.59;5111175;28;20031;-77
2022/05/09 00:48:43;;;;;;;13.77;4.40;;;;;;;4.85;97.42;102926.00;5111150;28;20065;-74
2022/05/09 00:51:08;;;;;;;9.70;3.42;;;;;;;4.85;97.30;102926.00;5111533;28;20442;-73
2022/05/09 00:53:36;;;;;;;13.60;3.40;;;;;;;4.83;97.36;102931.31;5076096;28;20432;-73
2022/05/09 00:56:06;;;;;;;10.07;3.80;;;;;;;4.80;97.32;102925.28;5111251;28;20062;-73
2022/05/09 00:58:40;;;;;;;7.88;3.55;;;;;;;4.77;97.25;102928.88;5093063;28;20059;-73
2022/05/09 01:01:09;;;;;;;11.93;3.85;;;;;;;4.72;97.12;102923.75;5093417;28;20030;-74
2022/05/09 01:03:40;;;;;;;10.18;3.28;;;;;;;4.69;97.46;102921.22;5113812;28;20038;-73
2022/05/09 01:06:06;;;;;;;10.60;3.75;;;;;;;4.65;97.19;102919.59;5114759;28;20024;-73
2022/05/09 01:08:34;;;;;;;13.52;4.45;;;;;;;4.62;97.34;102918.84;5114631;28;20463;-74
2022/05/09 01:11:03;;;;;;;7.85;3.22;;;;;;;4.57;97.36;102919.84;5114628;28;20040;-73
2022/05/09 01:13:33;;;;;;;7.35;3.13;;;;;;;4.53;97.19;102918.22;5114396;28;20031;-73
2022/05/09 01:16:01;;;;;;;9.07;3.65;;;;;;;4.52;97.05;102915.63;5096645;28;20096;-73
2022/05/09 01:18:27;;;;;;;8.88;3.22;;;;;;;4.52;97.35;102913.00;5114184;28;20034;-73
2022/05/09 01:20:53;;;;;;;9.75;3.20;;;;;;;4.49;97.16;102913.09;5114306;28;20035;-73
2022/05/09 01:23:18;;;;;;;11.70;3.50;;;;;;;4.46;96.90;102914.03;5114561;28;20028;-73
2022/05/09 01:25:43;;;;;;;13.18;3.65;;;;;;;4.42;96.96;102909.81;5079509;28;20035;-73
2022/05/09 01:28:10;;;;;;;7.80;3.25;;;;;;;4.37;96.87;102903.78;5096009;28;20065;-73
2022/05/09 01:30:58;;;;;;;7.95;3.50;;;;;;;4.34;97.28;102896.84;5114249;28;20053;-73
2022/05/09 01:33:31;;;;;;;12.73;3.53;;;;;;;4.30;97.11;102900.50;5114248;28;20081;-76
2022/05/09 01:36:00;;;;;;;9.70;3.80;;;;;;;4.27;96.85;102892.69;5114753;28;20031;-73
2022/05/09 01:38:47;;;;;;;8.05;3.63;;;;;;;4.26;96.54;102895.38;5110692;28;20051;-77
2022/05/09 01:41:13;;;;;;;10.02;3.50;;;;;;;4.23;96.76;102888.44;5114132;28;20050;-73
2022/05/09 01:43:42;;;;;;;10.23;3.00;;;;;;;4.21;96.13;102893.75;5113771;28;20441;-73
2022/05/09 01:46:12;;;;;;;9.85;3.20;;;;;;;4.17;95.85;102886.84;5112791;28;20024;-73
2022/05/09 01:51:23;;;;;;;14.98;4.13;;;;;;;4.13;96.12;102882.56;5114265;28;20042;-73
2022/05/09 01:53:51;;;;;;;9.77;3.70;;;;;;;4.11;96.38;102884.41;5113697;28;20115;-73
2022/05/09 01:56:18;;;;;;;7.75;3.22;;;;;;;4.07;95.90;102888.03;5114490;28;20080;-73
2022/05/09 01:58:43;;;;;;;11.55;3.83;;;;;;;4.02;95.48;102882.91;5114145;28;20495;-73
2022/05/09 02:01:09;;;;;;;8.60;3.10;;;;;;;4.03;95.63;102886.38;5113815;28;20032;-73
2022/05/09 02:03:35;;;;;;;15.82;4.30;;;;;;;4.00;96.11;102884.72;5113999;27;20043;-73
2022/05/09 02:06:01;;;;;;;10.10;4.03;;;;;;;3.98;96.45;102885.66;5112152;28;20051;-73
2022/05/09 02:08:26;;;;;;;15.75;4.63;;;;;;;3.96;96.91;102879.59;5095197;28;20068;-77
2022/05/09 02:10:52;;;;;;;13.82;3.70;;;;;;;3.92;97.47;102891.97;5113764;28;20032;-73
2022/05/09 02:13:17;;;;;;;9.00;3.40;;;;;;;3.87;96.93;102891.25;5112896;28;20424;-73
2022/05/09 02:15:43;;;;;;;12.43;3.95;;;;;;;3.83;96.73;102885.22;5113367;28;20413;-73
2022/05/09 02:18:08;;;;;;;10.50;3.55;;;;;;;3.83;97.07;102887.00;5113409;28;20376;-73
2022/05/09 02:20:33;;;;;;;11.50;3.85;;;;;;;3.84;97.80;102879.03;5112852;28;20039;-73
2022/05/09 02:22:59;;;;;;;13.48;3.75;;;;;;;3.80;97.99;102885.31;5113215;28;20114;-73
2022/05/09 02:25:29;;;;;;;14.75;3.47;;;;;;;3.75;97.42;102884.59;5113280;28;20046;-73
2022/05/09 02:27:58;;;;;;;14.35;4.20;;;;;;;3.74;97.33;102882.84;5113356;28;20186;-73
2022/05/09 02:30:24;;;;;;;10.27;3.40;;;;;;;3.75;97.81;102891.59;5113190;28;20051;-73
2022/05/09 02:32:49;;;;;;;14.88;3.70;;;;;;;3.72;97.84;102882.03;5113270;28;20092;-73
2022/05/09 02:35:16;;;;;;;9.25;3.47;;;;;;;3.71;97.62;102889.06;5112938;28;20383;-73
2022/05/09 02:37:41;;;;;;;13.77;4.07;;;;;;;3.73;98.02;102881.13;5110893;28;20100;-73
2022/05/09 02:40:07;;;;;;;14.90;4.18;;;;;;;3.73;98.71;102880.25;5111808;28;20118;-73
2022/05/09 02:42:34;;;;;;;10.05;3.90;;;;;;;3.69;98.76;102880.34;5113126;28;20118;-77
2022/05/09 02:45:00;;;;;;;10.75;3.80;;;;;;;3.65;98.60;102881.34;5094370;28;20035;-73
2022/05/09 02:47:26;;;;;;;11.95;3.90;;;;;;;3.65;98.41;102877.84;5112103;28;20122;-74
2022/05/09 02:49:52;;;;;;;13.27;3.85;;;;;;;3.64;98.65;102870.84;5112717;28;20031;-75
2022/05/09 02:52:18;;;;;;;10.32;3.90;;;;;;;3.60;98.46;102867.47;5111531;28;20047;-74
2022/05/09 02:54:44;;;;;;;12.13;3.70;;;;;;;3.60;98.51;102863.94;5111004;28;20040;-74
2022/05/09 02:57:09;;;;;;;16.67;4.07;;;;;;;3.57;98.55;102866.66;5111052;28;20111;-73
2022/05/09 02:59:35;;;;;;;11.32;3.63;;;;;;;3.56;98.41;102872.88;5112420;28;20087;-77
2022/05/09 03:02:01;;;;;;;9.30;3.33;;;;;;;3.51;98.15;102865.94;5112333;28;20435;-73
2022/05/09 03:04:39;;;;;;;5.97;3.03;;;;;;;3.48;97.85;102862.56;5112918;28;20031;-72
2022/05/09 03:07:09;;;;;;;7.10;3.20;;;;;;;3.45;97.32;102866.13;5111676;28;20399;-73
2022/05/09 03:09:35;;;;;;;9.98;3.72;;;;;;;3.45;97.24;102865.25;5112091;28;20031;-76
2022/05/09 03:12:01;;;;;;;12.07;3.63;;;;;;;3.45;97.72;102865.25;5112292;28;20032;-72
2022/05/09 03:14:26;;;;;;;12.15;4.53;;;;;;;3.46;98.16;102853.81;5112430;28;20475;-73
2022/05/09 03:16:52;;;;;;;10.35;3.80;;;;;;;3.45;98.55;102867.88;5112510;28;20031;-73
2022/05/09 03:19:18;;;;;;;11.73;3.83;;;;;;;3.44;98.16;102861.75;5112450;28;20043;-73
2022/05/09 03:21:45;;;;;;;11.77;4.47;;;;;;;3.43;98.04;102856.53;5110566;28;20040;-73
2022/05/09 03:24:10;;;;;;;14.65;5.03;;;;;;;3.44;98.57;102855.66;5093820;28;20031;-73
2022/05/09 03:26:35;;;;;;;9.65;4.47;;;;;;;3.42;98.72;102845.16;5111626;28;20370;-73
2022/05/09 03:29:01;;;;;;;12.95;3.67;;;;;;;3.41;98.85;102847.84;5111956;28;20489;-73
2022/05/09 03:31:26;;;;;;;9.93;4.05;;;;;;;3.38;98.81;102853.19;5111997;28;20435;-72
2022/05/09 03:33:51;;;;;;;16.90;4.18;;;;;;;3.36;98.29;102847.97;5111733;28;20035;-74
2022/05/09 03:36:17;;;;;;;9.52;3.55;;;;;;;3.33;98.16;102851.53;5111741;28;20111;-72
2022/05/09 03:38:42;;;;;;;17.27;5.72;;;;;;;3.32;98.06;102843.69;5111481;28;20059;-74
2022/05/09 03:41:08;;;;;;;8.85;3.70;;;;;;;3.31;98.46;102842.84;5111682;28;20428;-73
2022/05/09 03:43:33;;;;;;;17.05;4.60;;;;;;;3.28;98.29;102840.25;5093269;28;20040;-73
2022/05/09 03:46:00;;;;;;;14.93;3.95;;;;;;;3.29;98.49;102841.16;5093327;28;20054;-73
2022/05/09 03:48:26;;;;;;;12.57;4.47;;;;;;;3.30;99.08;102840.22;5111606;28;20472;-73
2022/05/09 03:50:51;;;;;;;11.20;3.47;;;;;;;3.29;99.27;102831.47;5111809;28;20046;-73
2022/05/09 03:53:17;;;;;;;12.73;4.72;;;;;;;3.27;99.00;102833.31;5093378;28;20381;-73
2022/05/09 03:55:42;;;;;;;11.32;4.72;;;;;;;3.28;99.33;102827.09;5111528;28;20055;-77
2022/05/09 03:58:08;;;;;;;14.90;4.68;;;;;;;3.28;99.36;102832.38;5093710;28;20380;-73
2022/05/09 04:00:35;;;;;;;11.98;4.50;;;;;;;3.28;99.59;102832.38;5111660;28;20031;-73
2022/05/09 04:03:01;;;;;;;12.93;4.40;;;;;;;3.24;99.35;102833.38;5111421;28;20030;-74
2022/05/09 04:05:31;;;;;;;7.35;3.70;;;;;;;3.19;98.71;102830.00;5111287;28;20065;-74
2022/05/09 04:07:59;;;;;;;13.65;4.80;;;;;;;3.19;98.20;102827.38;5111349;28;20023;-73
2022/05/09 04:10:29;;;;;;;9.82;4.40;;;;;;;3.22;98.64;102818.53;5076489;28;20385;-73
2022/05/09 04:12:54;;;;;;;12.35;4.25;;;;;;;3.22;99.12;102818.53;5110970;28;20020;-73
2022/05/09 04:18:05;;;;;;;8.02;4.22;;;;;;;3.24;99.28;102824.59;5111379;28;20089;-73
2022/05/09 04:20:30;;;;;;;15.80;4.55;;;;;;;3.25;99.44;102827.19;5111654;28;20629;-73
2022/05/09 04:23:00;;;;;;;11.45;4.68;;;;;;;3.26;99.15;102823.66;5111308;28;20122;-73
2022/05/09 04:25:26;;;;;;;10.70;4.68;;;;;;;3.31;99.26;102816.53;5111274;28;20065;-73
2022/05/09 04:27:52;;;;;;;10.82;4.35;;;;;;;3.33;99.29;102817.34;5111339;28;20436;-73
2022/05/09 04:30:18;;;;;;;9.18;4.07;;;;;;;3.38;99.56;102809.31;5110881;28;20043;-72
2022/05/09 04:32:44;;;;;;;17.65;5.88;;;;;;;3.44;99.83;102816.16;5111063;28;20039;-72
2022/05/09 04:35:14;;;;;;;15.52;5.10;;;;;;;3.47;100.00;102816.94;5110843;28;20023;-72
2022/05/09 04:37:43;;;;;;;12.65;4.45;;;;;;;3.51;100.00;102809.81;5114668;28;20063;-72
2022/05/09 04:40:10;;;;;;;14.90;5.15;;;;;;;3.56;100.00;102807.91;5097314;28;20418;-73
2022/05/09 04:42:35;;;;;;;16.85;5.80;;;;;;;3.64;100.00;102813.81;5115171;28;20111;-73
2022/05/09 04:45:01;;;;;;;12.38;5.30;;;;;;;3.72;100.00;102803.06;5096560;28;20092;-73
2022/05/09 04:47:27;;;;;;;17.33;5.28;;;;;;;3.79;100.00;102801.06;5115204;28;20471;-73
2022/05/09 04:49:52;;;;;;;11.38;5.63;;;;;;;3.84;100.00;102802.66;5114499;28;20037;-73
2022/05/09 04:52:18;;;;;;;16.17;5.10;;;;;;;3.91;100.00;102802.47;5114708;28;20083;-72
2022/05/09 04:54:43;;;;;;;19.92;6.28;;;;;;;4.02;100.00;102800.38;5114541;28;20501;-72
2022/05/09 04:57:09;;;;;;;11.88;5.32;;;;;;;4.08;100.00;102792.28;5114736;28;20038;-73
2022/05/09 04:59:34;;;;;;;12.38;5.25;;;;;;;4.18;100.00;102804.25;5096254;28;20024;-72
2022/05/09 05:02:00;;;;;;;25.55;5.80;;;;;;;4.28;100.00;102809.22;5114716;28;20046;-72
2022/05/09 05:04:25;;;;;;;21.67;6.60;;;;;;;4.37;100.00;102816.81;5114992;28;20057;-73
2022/05/09 05:06:51;;;;;;;22.30;6.00;;;;;;;4.46;100.00;102805.97;5080181;28;20363;-77
2022/05/09 05:09:16;;;;;;;16.48;5.72;;;;;;;4.53;100.00;102814.53;5115249;28;20519;-73
2022/05/09 05:11:41;;;;;;;18.17;5.60;;;;;;;4.62;100.00;102818.66;5096972;28;20038;-73
2022/05/09 05:14:07;;;;;;;15.05;5.85;;;;;;;4.69;100.00;102802.56;5115676;28;20031;-72
2022/05/09 05:19:16;;;;;;;24.63;6.35;;;;;;;4.90;100.00;102798.31;5115222;28;20038;-72
2022/05/09 05:21:42;;;;;;;15.57;5.30;;;;;;;4.99;100.00;102802.41;5115317;28;20035;-72
2022/05/09 05:24:08;;;;;;;22.15;5.47;;;;;;;5.07;100.00;102795.06;5115154;28;20049;-71
2022/05/09 05:26:34;;;;;;;21.55;5.47;;;;;;;5.17;100.00;102792.09;5096671;28;20043;-71
2022/05/09 05:28:59;;;;;;;16.38;5.82;;;;;;;5.23;100.00;102784.81;5114646;28;20059;-73
2022/05/09 05:31:25;;;;;;;21.02;5.57;;;;;;;5.30;100.00;102791.59;5115508;28;20114;-72
2022/05/09 05:33:50;;;;;;;14.63;4.95;;;;;;;5.37;100.00;102794.00;5115073;28;20043;-73
2022/05/09 05:36:16;;;;;;;15.82;5.22;;;;;;;5.44;100.00;102803.41;5115156;28;20157;-72
2022/05/09 05:38:43;;;;;;;19.08;6.05;;;;;;;5.50;100.00;102799.69;5114671;28;20118;-73
2022/05/09 05:41:09;;;;;;;15.95;5.90;;;;;;;5.56;100.00;102799.44;5114795;28;20038;-73
2022/05/09 05:43:35;;;;;;;21.08;5.40;;;;;;;5.63;100.00;102804.44;5114936;28;20070;-73
2022/05/09 05:46:00;;;;;;;12.00;4.85;;;;;;;5.72;100.00;102808.50;5096564;28;20023;-73
2022/05/09 05:48:25;;;;;;;16.85;5.10;;;;;;;5.80;100.00;102806.41;5114119;28;20439;-73
2022/05/09 05:50:52;;;;;;;21.95;5.25;;;;;;;5.88;99.69;102805.25;5114925;28;20028;-71
2022/05/09 05:53:18;;;;;;;14.85;5.38;;;;;;;5.98;99.23;102802.22;5114758;28;20024;-74
2022/05/09 05:55:44;;;;;;;17.05;5.38;;;;;;;6.10;98.89;102805.31;5115013;28;20032;-72
2022/05/09 05:58:10;;;;;;;13.63;4.85;;;;;;;6.24;98.09;102816.19;5096513;28;20032;-72
2022/05/09 06:00:36;;;;;;;13.15;5.05;;;;;;;6.41;98.04;102814.63;5114191;28;20502;-72
2022/05/09 06:03:01;;;;;;;15.60;5.60;;;;;;;6.60;97.56;102817.34;5114598;28;20070;-72
2022/05/09 06:05:27;;;;;;;17.02;4.97;;;;;;;6.79;97.29;102818.31;5114793;28;20080;-72
2022/05/09 06:07:55;;;;;;;13.93;5.55;;;;;;;6.97;96.68;102815.75;5114004;28;20031;-72
2022/05/09 06:10:21;;;;;;;14.48;4.90;;;;;;;7.14;95.53;102813.25;5114793;28;20087;-71
2022/05/09 06:12:47;;;;;;;18.33;5.50;;;;;;;7.39;94.94;102817.44;5114292;28;20106;-74
2022/05/09 06:15:28;;;;;;;18.35;4.57;;;;;;;7.64;94.76;102814.50;5114481;28;20453;-72
2022/05/09 06:17:54;;;;;;;;;;;;;;;7.85;92.23;102814.41;5096610;28;20047;-71
2022/05/09 06:20:20;;;;;;;20.52;5.22;;;;;;;8.01;90.79;102818.06;5096446;28;20358;-72
2022/05/09 06:22:46;;;;;;;12.50;4.70;;;;;;;8.15;89.43;102809.47;5114956;28;20110;-71
2022/05/09 06:25:14;;;;;;;12.75;5.53;;;;;;;8.39;89.92;102809.16;5116523;28;20055;-73
2022/05/09 06:27:41;;;;;;;17.00;5.00;;;;;;;8.59;88.30;102816.16;5114619;28;20561;-71
2022/05/09 06:30:08;;;;;;;13.30;4.13;;;;;;;8.73;87.15;102804.81;5114376;28;20456;-72
2022/05/09 06:32:34;;;;;;;15.25;5.57;;;;;;;8.91;87.17;102811.84;5114282;28;20043;-71
2022/05/09 06:35:00;;;;;;;18.60;4.25;;;;;;;9.04;85.06;102817.38;5114526;28;20027;-72
2022/05/09 06:37:28;;;;;;;19.67;4.57;;;;;;;9.24;85.19;102818.97;5113863;28;20044;-72
2022/05/09 06:39:54;;;;;;;13.65;4.57;;;;;;;9.48;85.40;102819.44;5113831;28;20065;-72
2022/05/09 06:42:19;;;;;;;14.40;4.65;;;;;;;9.65;82.10;102820.31;5113831;28;20043;-72
2022/05/09 06:44:45;;;;;;;16.33;5.90;;;;;;;9.88;81.28;102816.38;5113416;28;20455;-72
2022/05/09 06:47:12;;;;;;;14.43;4.15;;;;;;;10.11;78.74;102812.41;5113145;28;20032;-72
2022/05/09 06:49:37;;;;;;;17.17;5.28;;;;;;;10.27;76.64;102812.41;5113715;28;20031;-72
2022/05/09 06:52:03;;;;;;;11.90;4.50;;;;;;;10.53;75.89;102815.38;5095663;28;20062;-72
2022/05/09 06:54:28;;;;;;;22.58;5.35;;;;;;;10.73;73.81;102811.50;5113539;28;20042;-73
2022/05/09 06:56:53;;;;;;;13.88;5.13;;;;;;;10.89;72.75;102812.28;5095327;28;20529;-73
2022/05/09 06:59:22;;;;;;;27.00;4.88;;;;;;;11.07;73.99;102809.47;5112685;28;20478;-76
2022/05/09 07:01:50;;;;;;;15.02;4.60;;;;;;;11.26;70.05;102815.38;5113628;28;20039;-76
2022/05/09 07:04:16;;;;;;;17.00;5.57;;;;;;;11.49;69.68;102812.22;5113266;28;20107;-78
2022/05/09 07:06:41;;;;;;;19.83;4.72;;;;;;;11.63;68.42;102809.56;5113226;28;20103;-78
2022/05/09 07:09:09;;;;;;;15.52;4.82;;;;;;;11.68;65.47;102809.25;5113208;28;20114;-77
2022/05/09 07:11:35;;;;;;;10.48;3.95;;;;;;;11.83;65.85;102811.75;5112957;28;20401;-76
2022/05/09 07:14:00;;;;;;;14.45;4.55;;;;;;;12.01;66.51;102808.91;5095425;28;20031;-77
2022/05/09 07:16:26;;;;;;;19.75;4.78;;;;;;;12.13;64.97;102807.25;5078262;28;20032;-77
2022/05/09 07:18:51;;;;;;;17.75;4.93;;;;;;;12.25;65.02;102813.56;5113292;28;20517;-76
2022/05/09 07:21:16;;;;;;;16.55;5.38;;;;;;;12.39;62.56;102812.66;5113564;28;20387;-75
2022/05/09 07:23:42;;;;;;;13.52;4.22;;;;;;;12.66;61.38;102805.44;5094902;28;20057;-74
2022/05/09 07:26:08;;;;;;;14.27;4.32;;;;;;;12.83;61.35;102803.44;5094818;28;20038;-76
2022/05/09 07:28:33;;;;;;;17.02;4.97;;;;;;;12.99;62.05;102806.75;5095069;28;20084;-75
2022/05/09 07:31:00;;;;;;;15.38;4.70;;;;;;;13.10;59.62;102813.16;5113027;28;20067;-73
2022/05/09 07:33:27;;;;;;;9.90;4.32;;;;;;;13.33;60.34;102806.19;5112957;28;20055;-74
2022/05/09 07:35:53;;;;;;;15.02;4.75;;;;;;;13.43;58.94;102796.56;5095430;28;20031;-73
2022/05/09 07:38:18;;;;;;;22.17;4.88;;;;;;;13.56;60.02;102805.41;5108742;28;20084;-75
2022/05/09 07:40:45;;;;;;;12.20;4.03;;;;;;;13.67;59.07;102793.94;5112257;28;20110;-75
2022/05/09 07:43:14;;;;;;;13.30;4.90;;;;;;;13.89;58.48;102793.22;5113185;28;20039;-78
2022/05/09 07:45:40;;;;;;;14.20;5.10;;;;;;;14.14;58.60;102796.75;5113546;28;20031;-73
2022/05/09 07:48:06;;;;;;;17.27;4.88;;;;;;;14.43;56.86;102799.06;5113148;28;20173;-73
2022/05/09 07:50:32;;;;;;;20.63;5.22;;;;;;;14.59;55.21;102796.06;5113099;28;20069;-73
2022/05/09 07:52:58;;;;;;;20.02;5.10;;;;;;;14.61;55.21;102791.47;5111238;28;20485;-74
2022/05/09 07:55:24;;;;;;;18.27;4.60;;;;;;;14.60;55.77;102803.97;5111118;28;20067;-72
2022/05/09 07:57:49;;;;;;;12.98;4.97;;;;;;;14.83;55.80;102793.34;5111300;28;20172;-72
2022/05/09 08:00:15;;;;;;;22.13;4.75;;;;;;;15.04;54.89;102790.81;5111743;28;20039;-78
2022/05/09 08:02:40;;;;;;;14.52;4.90;;;;;;;15.30;54.27;102790.56;5111297;28;20396;-74
2022/05/09 08:05:10;;;;;;;15.73;4.88;;;;;;;15.62;53.49;102789.81;5112321;28;20043;-72
2022/05/09 08:07:38;;;;;;;17.00;5.38;;;;;;;15.84;53.27;102786.25;5112620;28;20111;-73
2022/05/09 08:10:05;;;;;;;16.65;4.43;;;;;;;16.06;52.28;102784.47;5112522;28;20039;-74
2022/05/09 08:12:30;;;;;;;15.95;5.32;;;;;;;16.15;51.31;102784.56;5115459;28;20477;-72
2022/05/09 08:14:55;;;;;;;14.60;4.82;;;;;;;16.28;49.47;102784.34;5116332;28;20032;-73
2022/05/09 08:17:21;;;;;;;15.05;4.70;;;;;;;16.50;52.01;102785.22;5116544;28;20035;-73
2022/05/09 08:19:47;;;;;;;13.23;5.00;;;;;;;16.86;51.42;102791.94;5116444;28;20066;-74
2022/05/09 08:22:13;;;;;;;17.13;5.60;;;;;;;17.41;48.43;102774.66;5115103;28;20490;-77
2022/05/09 08:24:38;;;;;;;17.88;5.18;;;;;;;17.77;46.53;102775.03;5116999;28;20047;-76
2022/05/09 08:27:05;;;;;;;17.25;4.55;;;;;;;17.96;45.44;102777.78;5116905;28;20368;-76
2022/05/09 08:29:30;;;;;;;19.77;4.57;;;;;;;18.46;44.93;102779.44;5116966;27;20027;-76
2022/05/09 08:31:55;;;;;;;17.67;5.28;;;;;;;18.70;43.68;102777.28;5114975;28;20034;-76
2022/05/09 08:34:21;;;;;;;19.45;4.78;;;;;;;19.07;43.68;102777.31;5114656;28;20460;-76
2022/05/09 08:36:48;;;;;;;13.90;4.82;;;;;;;19.47;42.98;102770.72;5114560;28;20116;-74
2022/05/09 08:39:15;;;;;;;38.97;5.80;;;;;;;19.95;42.36;102768.72;5081941;28;20043;-76
2022/05/09 08:41:51;;;;;;;12.40;4.13;;;;;;;20.43;40.54;102772.00;5116853;28;20565;-76
2022/05/09 08:44:27;;;;;;;15.05;4.15;;;;;;;20.76;39.52;102774.94;5116620;28;20031;-78
2022/05/09 08:47:03;;;;;;;15.40;4.47;;;;;;;20.90;37.92;102768.94;5098153;28;20031;-77
2022/05/09 08:49:37;;;;;;;13.45;4.25;;;;;;;20.88;38.67;102768.25;5116423;28;20031;-78
2022/05/09 08:52:26;;;;;;;12.65;4.43;;;;;;;21.21;38.81;102770.25;5098035;28;20037;-79
2022/05/09 08:54:54;;;;;;;9.55;4.18;;;;;;;21.54;38.69;102757.72;5116157;28;20042;-79
2022/05/09 08:57:26;;;;;;;15.43;4.82;;;;;;;21.64;37.94;102766.53;5116036;28;20058;-80
2022/05/09 09:00:09;;;;;;;12.05;3.58;;;;;;;21.95;35.99;102762.34;5116791;28;20112;-80
2022/05/09 09:02:46;;;;;;;9.45;3.92;;;;;;;22.62;35.18;102761.34;5115994;28;20042;-78
2022/05/09 09:05:23;;;;;;;15.00;4.78;;;;;;;23.19;35.36;102757.59;5115743;28;20490;-77
2022/05/09 09:08:07;;;;;;;14.77;4.10;;;;;;;23.79;33.48;102750.63;5115578;28;20039;-74
2022/05/09 09:10:39;;;;;;;16.38;3.88;;;;;;;24.75;30.53;102752.84;5116154;28;20039;-75
2022/05/09 09:13:33;;;;;;;9.63;3.72;;;;;;;25.56;28.68;102744.69;5115188;28;20051;-77
2022/05/09 09:15:59;;;;;;;11.63;3.47;;;;;;;25.63;29.52;102733.84;5115621;28;20401;-75
2022/05/09 09:18:54;;;;;;;16.95;3.78;;;;;;;26.81;27.36;102733.31;5096874;28;20039;-76
2022/05/09 09:21:53;;;;;;;11.80;2.83;;;;;;;27.46;24.49;102736.56;5097084;28;20106;-80
2022/05/09 09:24:24;;;;;;;11.88;2.78;;;;;;;27.53;24.01;102728.34;5114403;28;20015;-76
2022/05/09 09:27:05;;;;;;;6.60;1.88;;;;;;;27.59;22.59;102730.28;5097280;28;20031;-76
2022/05/09 09:29:39;;;;;;;4.75;1.90;;;;;;;27.11;22.94;102725.72;5096961;28;20023;-77
2022/05/09 09:32:11;;;;;;;10.25;2.65;;;;;;;27.65;23.55;102725.84;5097219;28;20025;-80
2022/05/09 09:35:24;;;;;;;10.02;3.05;;;;;;;27.86;24.43;102717.47;5096918;28;20027;-78
2022/05/09 09:38:07;;;;;;;7.70;2.78;;;;;;;27.94;22.74;102714.50;5089874;28;20072;-78
2022/05/09 09:40:33;;;;;;;11.75;2.53;;;;;;;27.82;22.31;102716.19;5094570;28;20062;-77
2022/05/09 09:42:59;;;;;;;8.43;3.05;;;;;;;27.97;22.50;102718.75;5076637;28;20032;-80
2022/05/09 09:45:50;;;;;;;10.70;2.90;;;;;;;27.71;22.34;102709.47;5094514;28;20040;-80
2022/05/09 09:48:26;;;;;;;6.53;2.58;;;;;;;27.76;22.70;102704.19;5076232;28;20490;-80
2022/05/09 09:51:03;;;;;;;9.48;2.97;;;;;;;27.82;23.10;102702.53;5077010;28;20020;-80
2022/05/09 09:53:50;;;;;;;8.60;2.70;;;;;;;28.02;21.92;102705.31;5094586;28;20036;-80
2022/05/09 09:56:29;;;;;;;9.80;3.05;;;;;;;27.86;22.69;102709.25;5092501;28;20040;-79
2022/05/09 09:59:09;;;;;;;7.15;2.20;;;;;;;27.99;22.55;102705.69;5094509;28;20028;-80
2022/05/09 10:01:35;;;;;;;7.95;2.30;;;;;;;28.28;22.44;102693.47;5076628;28;20032;-80
2022/05/09 10:04:09;;;;;;;8.30;2.50;;;;;;;28.30;22.02;102690.50;5094573;28;20127;-73
2022/05/09 10:06:54;;;;;;;7.38;2.08;;;;;;;28.14;23.20;102687.19;5093869;28;20028;-73
2022/05/09 10:09:21;;;;;;;8.57;2.45;;;;;;;28.57;23.48;102693.19;5059816;28;20058;-73
2022/05/09 10:11:47;;;;;;;8.13;2.40;;;;;;;28.89;20.72;102682.34;5093805;28;20029;-73
2022/05/09 10:14:31;;;;;;;8.10;2.53;;;;;;;27.93;22.75;102687.38;5093494;28;20337;-73
2022/05/09 10:17:16;;;;;;;8.13;2.58;;;;;;;27.45;23.05;102691.13;5093988;28;20108;-73
2022/05/09 10:19:42;;;;;;;13.77;2.90;;;;;;;28.57;21.88;102685.81;5094118;28;20121;-73
2022/05/09 10:25:07;;;;;;;7.60;2.33;;;;;;;28.73;20.99;102679.06;5094157;28;20093;-73
2022/05/09 10:27:33;;;;;;;6.70;2.08;;;;;;;29.20;21.27;102678.81;5093431;28;20375;-79
2022/05/09 10:30:29;;;;;;;7.18;2.83;;;;;;;29.17;21.68;102671.88;5093553;28;20036;-73
2022/05/09 10:33:03;;;;;;;9.50;2.70;;;;;;;29.75;20.60;102674.66;5093568;28;20418;-73
2022/05/09 10:35:40;;;;;;;8.00;2.58;;;;;;;28.76;21.14;102673.13;5093377;28;20460;-73
2022/05/09 10:38:29;;;;;;;7.93;2.80;;;;;;;28.68;22.45;102670.66;5104702;28;20391;-73
2022/05/09 10:41:03;;;;;;;7.82;2.65;;;;;;;28.63;21.26;102654.03;5100143;28;20096;-73
2022/05/09 10:43:50;;;;;;;7.78;2.70;;;;;;;28.83;21.04;102660.25;5114570;28;20024;-72
2022/05/09 10:46:20;;;;;;;5.15;2.45;;;;;;;29.19;21.49;102661.53;5114297;28;20058;-72
2022/05/09 10:48:57;;;;;;;10.57;2.85;;;;;;;29.10;21.17;102654.63;5114217;28;20024;-73
2022/05/09 10:51:34;;;;;;;8.63;2.40;;;;;;;28.90;20.40;102662.94;5114149;28;20122;-73
2022/05/09 10:54:12;;;;;;;7.88;2.95;;;;;;;29.16;21.07;102661.97;5113904;28;20038;-73
2022/05/09 10:56:53;;;;;;;10.85;2.78;;;;;;;28.81;21.48;102656.03;5113799;28;20023;-74
2022/05/09 10:59:24;;;;;;;9.80;2.75;;;;;;;29.12;21.00;102654.41;5113570;28;20476;-73
2022/05/09 11:01:56;;;;;;;6.93;2.53;;;;;;;29.43;20.69;102648.13;5114255;28;20111;-73
2022/05/09 11:04:24;;;;;;;7.18;2.67;;;;;;;29.80;20.70;102644.63;5113457;28;20032;-73
2022/05/09 11:07:04;;;;;;;7.95;2.35;;;;;;;29.74;20.78;102640.91;5113263;28;20051;-75
2022/05/09 11:09:36;;;;;;;8.63;2.90;;;;;;;30.36;20.42;102648.31;5113040;28;20484;-72
2022/05/09 11:12:13;;;;;;;8.85;3.10;;;;;;;29.20;19.57;102651.41;5112743;28;20043;-73
2022/05/09 11:14:50;;;;;;;6.72;2.58;;;;;;;29.36;20.07;102642.69;5112980;28;20498;-84
2022/05/09 11:17:30;;;;;;;8.23;2.95;;;;;;;29.86;20.85;102644.63;5094971;28;20027;-72
2022/05/09 11:20:15;;;;;;;11.48;2.97;;;;;;;29.65;21.28;102628.53;5113145;28;20027;-72
2022/05/09 11:23:02;;;;;;;6.50;3.10;;;;;;;29.87;19.98;102638.09;5113264;28;20043;-74
2022/05/09 11:26:03;;;;;;;9.75;2.85;;;;;;;29.81;17.94;102630.75;5112848;28;20020;-73
2022/05/09 11:28:37;;;;;;;7.45;2.75;;;;;;;30.01;19.21;102627.81;5113037;28;20115;-72
2022/05/09 11:31:05;;;;;;;8.73;2.67;;;;;;;30.01;20.47;102622.31;5112699;28;20111;-72
2022/05/09 11:33:56;;;;;;;6.35;2.85;;;;;;;30.21;18.27;102615.78;5113090;28;20360;-72
2022/05/09 11:36:25;;;;;;;11.93;2.65;;;;;;;29.90;19.53;102614.81;5112742;28;20039;-72
2022/05/09 11:39:05;;;;;;;8.68;2.80;;;;;;;29.99;20.51;102612.63;5113128;28;20044;-72
2022/05/09 11:41:39;;;;;;;10.70;3.10;;;;;;;30.15;18.84;102608.47;5112817;28;20035;-72
2022/05/09 11:44:15;;;;;;;8.68;2.90;;;;;;;29.53;20.12;102603.78;5112795;28;20035;-72
2022/05/09 11:47:08;;;;;;;6.53;2.60;;;;;;;29.84;19.67;102599.28;5112150;28;20499;-72
2022/05/09 11:50:12;;;;;;;9.20;3.13;;;;;;;29.40;20.79;102593.75;5112851;28;20028;-73